sensor_id;sensor_type;location;lat;lon;timestamp;pressure;altitude;pressure_sealevel;temperature;humidity
3254;BME280;1639;42.804;23.342;2022-09-27T00:01:06;71905.22;;;-148.52;100.00
3254;BME280;1639;42.804;23.342;2022-09-27T00:10:33;71863.88;;;-148.52;100.00
3254;BME280;1639;42.804;23.342;2022-09-27T00:12:59;71870.09;;;-148.52;100.00
3254;BME280;1639;42.804;23.342;2022-09-27T00:15:24;71880.41;;;-148.52;100.00
3254;BME280;1639;42.804;23.342;2022-09-27T00:17:50;71894.91;;;-148.52;100.00
3254;BME280;1639;42.804;23.342;2022-09-27T00:20:17;71901.09;;;-148.52;100.00
3254;BME280;1639;42.804;23.342;2022-09-27T00:22:43;71911.44;;;-148.52;100.00
3254;BME280;1639;42.804;23.342;2022-09-27T00:25:09;71905.22;;;-148.52;100.00
3254;BME280;1639;42.804;23.342;2022-09-27T00:27:34;71899.03;;;-148.52;100.00
3254;BME280;1639;42.804;23.342;2022-09-27T00:29:59;71882.50;;;-148.52;100.00
3254;BME280;1639;42.804;23.342;2022-09-27T00:42:30;71896.97;;;-148.52;100.00
3254;BME280;1639;42.804;23.342;2022-09-27T00:45:00;71896.97;;;-148.52;100.00
3254;BME280;1639;42.804;23.342;2022-09-27T00:47:33;71901.09;;;-148.52;100.00
3254;BME280;1639;42.804;23.342;2022-09-27T00:50:27;71901.09;;;-148.52;100.00
3254;BME280;1639;42.804;23.342;2022-09-27T00:53:19;71936.25;;;-148.52;100.00
3254;BME280;1639;42.804;23.342;2022-09-27T00:55:51;71927.97;;;-148.52;100.00
3254;BME280;1639;42.804;23.342;2022-09-27T00:58:20;71909.38;;;-148.52;100.00
3254;BME280;1639;42.804;23.342;2022-09-27T01:00:50;71905.22;;;-148.52;100.00
3254;BME280;1639;42.804;23.342;2022-09-27T01:03:25;71913.50;;;-148.52;100.00
3254;BME280;1639;42.804;23.342;2022-09-27T01:05:52;71905.22;;;-148.52;100.00
3254;BME280;1639;42.804;23.342;2022-09-27T01:08:18;71925.91;;;-148.52;100.00
3254;BME280;1639;42.804;23.342;2022-09-27T01:10:55;71915.56;;;-148.52;100.00
3254;BME280;1639;42.804;23.342;2022-09-27T01:13:34;71917.63;;;-148.52;100.00
3254;BME280;1639;42.804;23.342;2022-09-27T01:18:56;71936.25;;;-148.52;100.00
3254;BME280;1639;42.804;23.342;2022-09-27T01:24:23;71936.25;;;-148.52;100.00
3254;BME280;1639;42.804;23.342;2022-09-27T01:27:19;71934.19;;;-148.52;100.00
3254;BME280;1639;42.804;23.342;2022-09-27T01:35:00;71890.75;;;-148.52;100.00
3254;BME280;1639;42.804;23.342;2022-09-27T01:37:38;71857.69;;;-148.52;100.00
3254;BME280;1639;42.804;23.342;2022-09-27T01:43:25;71863.88;;;-148.52;100.00
3254;BME280;1639;42.804;23.342;2022-09-27T01:46:02;71859.75;;;-148.52;100.00
3254;BME280;1639;42.804;23.342;2022-09-27T01:48:36;71855.59;;;-148.52;100.00
3254;BME280;1639;42.804;23.342;2022-09-27T01:51:09;71855.59;;;-148.52;100.00
3254;BME280;1639;42.804;23.342;2022-09-27T01:53:40;71859.75;;;-148.52;100.00
3254;BME280;1639;42.804;23.342;2022-09-27T01:56:11;71855.59;;;-148.52;100.00
3254;BME280;1639;42.804;23.342;2022-09-27T01:59:11;71837.00;;;-148.52;100.00
3254;BME280;1639;42.804;23.342;2022-09-27T02:01:39;71830.81;;;-148.52;100.00
3254;BME280;1639;42.804;23.342;2022-09-27T02:04:09;71832.88;;;-148.52;100.00
3254;BME280;1639;42.804;23.342;2022-09-27T02:06:40;71822.53;;;-148.52;100.00
3254;BME280;1639;42.804;23.342;2022-09-27T02:09:13;71824.59;;;-148.52;100.00
3254;BME280;1639;42.804;23.342;2022-09-27T02:11:47;71843.19;;;-148.52;100.00
3254;BME280;1639;42.804;23.342;2022-09-27T02:14:22;71830.81;;;-148.52;100.00
3254;BME280;1639;42.804;23.342;2022-09-27T02:22:36;71816.31;;;-148.52;100.00
3254;BME280;1639;42.804;23.342;2022-09-27T02:30:13;71845.28;;;-148.52;100.00
3254;BME280;1639;42.804;23.342;2022-09-27T02:32:40;71826.66;;;-148.52;100.00
3254;BME280;1639;42.804;23.342;2022-09-27T02:35:13;71843.19;;;-148.52;100.00
3254;BME280;1639;42.804;23.342;2022-09-27T02:37:39;71843.19;;;-148.52;100.00
3254;BME280;1639;42.804;23.342;2022-09-27T02:40:05;71837.00;;;-148.52;100.00
3254;BME280;1639;42.804;23.342;2022-09-27T02:42:32;71853.53;;;-148.52;100.00
3254;BME280;1639;42.804;23.342;2022-09-27T02:44:58;71855.59;;;-148.52;100.00
3254;BME280;1639;42.804;23.342;2022-09-27T02:47:40;71857.69;;;-148.52;100.00
3254;BME280;1639;42.804;23.342;2022-09-27T02:51:00;71843.19;;;-148.52;100.00
3254;BME280;1639;42.804;23.342;2022-09-27T02:53:43;71839.06;;;-148.52;100.00
3254;BME280;1639;42.804;23.342;2022-09-27T03:06:29;71847.34;;;-148.52;100.00
3254;BME280;1639;42.804;23.342;2022-09-27T03:08:56;71826.66;;;-148.52;100.00
3254;BME280;1639;42.804;23.342;2022-09-27T03:11:21;71814.25;;;-148.52;100.00
3254;BME280;1639;42.804;23.342;2022-09-27T03:13:47;71766.69;;;-148.52;100.00
3254;BME280;1639;42.804;23.342;2022-09-27T03:16:12;71764.63;;;-148.52;100.00
3254;BME280;1639;42.804;23.342;2022-09-27T03:18:40;71752.22;;;-148.52;100.00
3254;BME280;1639;42.804;23.342;2022-09-27T03:21:05;71748.09;;;-148.52;100.00
3254;BME280;1639;42.804;23.342;2022-09-27T03:23:31;71733.63;;;-148.52;100.00
3254;BME280;1639;42.804;23.342;2022-09-27T03:25:56;71743.97;;;-148.52;100.00
3254;BME280;1639;42.804;23.342;2022-09-27T03:28:22;71733.63;;;-148.52;100.00
3254;BME280;1639;42.804;23.342;2022-09-27T03:30:49;71731.56;;;-148.52;100.00
3254;BME280;1639;42.804;23.342;2022-09-27T03:33:14;71739.81;;;-148.52;100.00
3254;BME280;1639;42.804;23.342;2022-09-27T03:35:40;71735.69;;;-148.52;100.00
3254;BME280;1639;42.804;23.342;2022-09-27T03:38:07;71731.56;;;-148.52;100.00
3254;BME280;1639;42.804;23.342;2022-09-27T03:40:33;71723.28;;;-148.52;100.00
3254;BME280;1639;42.804;23.342;2022-09-27T03:42:58;71692.28;;;-148.52;100.00
3254;BME280;1639;42.804;23.342;2022-09-27T03:45:24;71690.19;;;-148.52;100.00
3254;BME280;1639;42.804;23.342;2022-09-27T03:47:49;71681.94;;;-148.52;100.00
3254;BME280;1639;42.804;23.342;2022-09-27T03:50:15;71688.13;;;-148.52;100.00
3254;BME280;1639;42.804;23.342;2022-09-27T03:52:43;71690.19;;;-148.52;100.00
3254;BME280;1639;42.804;23.342;2022-09-27T03:55:09;71692.28;;;-148.52;100.00
3254;BME280;1639;42.804;23.342;2022-09-27T03:57:35;71708.81;;;-148.52;100.00
3254;BME280;1639;42.804;23.342;2022-09-27T04:00:01;71708.81;;;-148.52;100.00
3254;BME280;1639;42.804;23.342;2022-09-27T04:02:27;71719.16;;;-148.52;100.00
3254;BME280;1639;42.804;23.342;2022-09-27T04:04:53;71727.41;;;-148.52;100.00
3254;BME280;1639;42.804;23.342;2022-09-27T04:07:18;71710.88;;;-148.52;100.00
3254;BME280;1639;42.804;23.342;2022-09-27T04:09:43;71729.50;;;-148.52;100.00
3254;BME280;1639;42.804;23.342;2022-09-27T04:12:11;71723.28;;;-148.52;100.00
3254;BME280;1639;42.804;23.342;2022-09-27T04:14:36;71704.69;;;-148.52;100.00
3254;BME280;1639;42.804;23.342;2022-09-27T04:17:02;71704.69;;;-148.52;100.00
3254;BME280;1639;42.804;23.342;2022-09-27T04:19:27;71694.34;;;-148.52;100.00
3254;BME280;1639;42.804;23.342;2022-09-27T04:21:53;71698.47;;;-148.52;100.00
3254;BME280;1639;42.804;23.342;2022-09-27T04:24:18;71708.81;;;-148.52;100.00
3254;BME280;1639;42.804;23.342;2022-09-27T04:26:44;71702.59;;;-148.52;100.00
3254;BME280;1639;42.804;23.342;2022-09-27T04:29:09;71706.75;;;-148.52;100.00
3254;BME280;1639;42.804;23.342;2022-09-27T04:31:35;71698.47;;;-148.52;100.00
3254;BME280;1639;42.804;23.342;2022-09-27T04:34:03;71719.16;;;-148.52;100.00
3254;BME280;1639;42.804;23.342;2022-09-27T04:36:28;71723.28;;;-148.52;100.00
3254;BME280;1639;42.804;23.342;2022-09-27T04:38:55;71723.28;;;-148.52;100.00
3254;BME280;1639;42.804;23.342;2022-09-27T04:41:22;71710.88;;;-148.52;100.00
3254;BME280;1639;42.804;23.342;2022-09-27T04:43:49;71686.06;;;-148.52;100.00
3254;BME280;1639;42.804;23.342;2022-09-27T04:46:15;71690.19;;;-148.52;100.00
3254;BME280;1639;42.804;23.342;2022-09-27T04:48:41;71698.47;;;-148.52;100.00
3254;BME280;1639;42.804;23.342;2022-09-27T04:51:07;71690.19;;;-148.52;100.00
3254;BME280;1639;42.804;23.342;2022-09-27T04:53:33;71698.47;;;-148.52;100.00
3254;BME280;1639;42.804;23.342;2022-09-27T04:55:59;71681.94;;;-148.52;100.00
3254;BME280;1639;42.804;23.342;2022-09-27T04:58:26;71694.34;;;-148.52;100.00
3254;BME280;1639;42.804;23.342;2022-09-27T05:00:53;71688.13;;;-148.52;100.00
3254;BME280;1639;42.804;23.342;2022-09-27T05:03:20;71681.94;;;-148.52;100.00
3254;BME280;1639;42.804;23.342;2022-09-27T05:05:46;71673.66;;;-148.52;100.00
3254;BME280;1639;42.804;23.342;2022-09-27T05:08:11;71669.53;;;-148.52;100.00
3254;BME280;1639;42.804;23.342;2022-09-27T05:10:36;71665.38;;;-148.52;100.00
3254;BME280;1639;42.804;23.342;2022-09-27T05:13:02;71708.81;;;-148.52;100.00
3254;BME280;1639;42.804;23.342;2022-09-27T05:15:27;71706.75;;;-148.52;100.00
3254;BME280;1639;42.804;23.342;2022-09-27T05:17:53;71692.28;;;-148.52;100.00
3254;BME280;1639;42.804;23.342;2022-09-27T05:20:19;71690.19;;;-148.52;100.00
3254;BME280;1639;42.804;23.342;2022-09-27T05:22:45;71673.66;;;-148.52;100.00
3254;BME280;1639;42.804;23.342;2022-09-27T05:25:10;71698.47;;;-148.52;100.00
3254;BME280;1639;42.804;23.342;2022-09-27T05:27:36;71710.88;;;-148.52;100.00
3254;BME280;1639;42.804;23.342;2022-09-27T05:30:02;71679.88;;;-148.52;100.00
3254;BME280;1639;42.804;23.342;2022-09-27T05:32:28;71663.31;;;-148.52;100.00
3254;BME280;1639;42.804;23.342;2022-09-27T05:34:54;71665.38;;;-148.52;100.00
3254;BME280;1639;42.804;23.342;2022-09-27T05:37:20;71661.25;;;-148.52;100.00
3254;BME280;1639;42.804;23.342;2022-09-27T05:39:45;71638.50;;;-148.52;100.00
3254;BME280;1639;42.804;23.342;2022-09-27T05:42:11;71642.66;;;-148.52;100.00
3254;BME280;1639;42.804;23.342;2022-09-27T05:44:39;71624.03;;;-148.52;100.00
3254;BME280;1639;42.804;23.342;2022-09-27T05:47:05;71640.59;;;-148.52;100.00
3254;BME280;1639;42.804;23.342;2022-09-27T05:49:33;71648.84;;;-148.52;100.00
3254;BME280;1639;42.804;23.342;2022-09-27T05:51:58;71638.50;;;-148.52;100.00
3254;BME280;1639;42.804;23.342;2022-09-27T05:54:24;71644.72;;;-148.52;100.00
3254;BME280;1639;42.804;23.342;2022-09-27T05:56:53;71659.19;;;-148.52;100.00
3254;BME280;1639;42.804;23.342;2022-09-27T05:59:18;71648.84;;;-148.52;100.00
3254;BME280;1639;42.804;23.342;2022-09-27T06:01:44;71653.00;;;-148.52;100.00
3254;BME280;1639;42.804;23.342;2022-09-27T06:04:09;71632.31;;;-148.52;100.00
3254;BME280;1639;42.804;23.342;2022-09-27T06:06:35;71630.25;;;-148.52;100.00
3254;BME280;1639;42.804;23.342;2022-09-27T06:09:01;71619.91;;;-148.52;100.00
3254;BME280;1639;42.804;23.342;2022-09-27T06:11:27;71632.31;;;-148.52;100.00
3254;BME280;1639;42.804;23.342;2022-09-27T06:13:53;71621.97;;;-148.52;100.00
3254;BME280;1639;42.804;23.342;2022-09-27T06:16:18;71609.56;;;-148.52;100.00
3254;BME280;1639;42.804;23.342;2022-09-27T06:18:44;71607.50;;;-148.52;100.00
3254;BME280;1639;42.804;23.342;2022-09-27T06:21:09;71624.03;;;-148.52;100.00
3254;BME280;1639;42.804;23.342;2022-09-27T06:23:35;71648.84;;;-148.52;100.00
3254;BME280;1639;42.804;23.342;2022-09-27T06:26:03;71642.66;;;-148.52;100.00
3254;BME280;1639;42.804;23.342;2022-09-27T06:28:29;71653.00;;;-148.52;100.00
3254;BME280;1639;42.804;23.342;2022-09-27T06:30:54;71642.66;;;-148.52;100.00
3254;BME280;1639;42.804;23.342;2022-09-27T06:33:20;71657.13;;;-148.52;100.00
3254;BME280;1639;42.804;23.342;2022-09-27T06:35:46;71681.94;;;-148.52;100.00
3254;BME280;1639;42.804;23.342;2022-09-27T06:38:15;71684.00;;;-148.52;100.00
3254;BME280;1639;42.804;23.342;2022-09-27T06:40:41;71679.88;;;-148.52;100.00
3254;BME280;1639;42.804;23.342;2022-09-27T06:43:12;71669.53;;;-148.52;100.00
3254;BME280;1639;42.804;23.342;2022-09-27T06:45:38;71669.53;;;-148.52;100.00
3254;BME280;1639;42.804;23.342;2022-09-27T06:48:05;71671.59;;;-148.52;100.00
3254;BME280;1639;42.804;23.342;2022-09-27T06:50:35;71681.94;;;-148.52;100.00
3254;BME280;1639;42.804;23.342;2022-09-27T06:53:02;71657.13;;;-148.52;100.00
3254;BME280;1639;42.804;23.342;2022-09-27T06:55:27;71640.59;;;-148.52;100.00
3254;BME280;1639;42.804;23.342;2022-09-27T06:57:58;71638.50;;;-148.52;100.00
3254;BME280;1639;42.804;23.342;2022-09-27T07:00:43;71640.59;;;-148.52;100.00
3254;BME280;1639;42.804;23.342;2022-09-27T07:03:12;71653.00;;;-148.52;100.00
3254;BME280;1639;42.804;23.342;2022-09-27T07:05:38;71665.38;;;-148.52;100.00
3254;BME280;1639;42.804;23.342;2022-09-27T07:08:06;71657.13;;;-148.52;100.00
3254;BME280;1639;42.804;23.342;2022-09-27T07:10:34;71653.00;;;-148.52;100.00
3254;BME280;1639;42.804;23.342;2022-09-27T07:13:08;71648.84;;;-148.52;100.00
3254;BME280;1639;42.804;23.342;2022-09-27T07:15:34;71648.84;;;-148.52;100.00
3254;BME280;1639;42.804;23.342;2022-09-27T07:18:02;71640.59;;;-148.52;100.00
3254;BME280;1639;42.804;23.342;2022-09-27T07:20:28;71650.91;;;-148.52;100.00
3254;BME280;1639;42.804;23.342;2022-09-27T07:22:54;71661.25;;;-148.52;100.00
3254;BME280;1639;42.804;23.342;2022-09-27T07:25:20;71630.25;;;-148.52;100.00
3254;BME280;1639;42.804;23.342;2022-09-27T07:27:46;71609.56;;;-148.52;100.00
3254;BME280;1639;42.804;23.342;2022-09-27T07:30:12;71611.63;;;-148.52;100.00
3254;BME280;1639;42.804;23.342;2022-09-27T07:32:38;71593.03;;;-148.52;100.00
3254;BME280;1639;42.804;23.342;2022-09-27T07:35:04;71578.56;;;-148.52;100.00
3254;BME280;1639;42.804;23.342;2022-09-27T07:37:36;71570.28;;;-148.52;100.00
3254;BME280;1639;42.804;23.342;2022-09-27T07:40:05;71557.88;;;-148.52;100.00
3254;BME280;1639;42.804;23.342;2022-09-27T07:42:32;71553.75;;;-148.52;100.00
3254;BME280;1639;42.804;23.342;2022-09-27T07:44:57;71557.88;;;-148.52;100.00
3254;BME280;1639;42.804;23.342;2022-09-27T07:47:24;71539.28;;;-148.52;100.00
3254;BME280;1639;42.804;23.342;2022-09-27T07:49:50;71547.53;;;-148.52;100.00
3254;BME280;1639;42.804;23.342;2022-09-27T07:52:20;71533.06;;;-148.52;100.00
3254;BME280;1639;42.804;23.342;2022-09-27T07:54:46;71537.22;;;-148.52;100.00
3254;BME280;1639;42.804;23.342;2022-09-27T07:57:12;71522.72;;;-148.52;100.00
3254;BME280;1639;42.804;23.342;2022-09-27T07:59:38;71528.94;;;-148.52;100.00
3254;BME280;1639;42.804;23.342;2022-09-27T08:02:04;71570.28;;;-148.52;100.00
3254;BME280;1639;42.804;23.342;2022-09-27T08:04:29;71580.63;;;-148.52;100.00
3254;BME280;1639;42.804;23.342;2022-09-27T08:06:54;71586.81;;;-148.52;100.00
3254;BME280;1639;42.804;23.342;2022-09-27T08:09:20;71595.09;;;-148.52;100.00
3254;BME280;1639;42.804;23.342;2022-09-27T08:11:46;71603.38;;;-148.52;100.00
3254;BME280;1639;42.804;23.342;2022-09-27T08:14:13;71615.78;;;-148.52;100.00
3254;BME280;1639;42.804;23.342;2022-09-27T08:16:39;71615.78;;;-148.52;100.00
3254;BME280;1639;42.804;23.342;2022-09-27T08:19:05;71595.09;;;-148.52;100.00
3254;BME280;1639;42.804;23.342;2022-09-27T08:21:30;71586.81;;;-148.52;100.00
3254;BME280;1639;42.804;23.342;2022-09-27T08:23:56;71597.16;;;-148.52;100.00
3254;BME280;1639;42.804;23.342;2022-09-27T08:26:23;71593.03;;;-148.52;100.00
3254;BME280;1639;42.804;23.342;2022-09-27T08:28:48;71597.16;;;-148.52;100.00
3254;BME280;1639;42.804;23.342;2022-09-27T08:31:14;71599.22;;;-148.52;100.00
3254;BME280;1639;42.804;23.342;2022-09-27T08:33:39;71603.38;;;-148.52;100.00
3254;BME280;1639;42.804;23.342;2022-09-27T08:36:10;71582.69;;;-148.52;100.00
3254;BME280;1639;42.804;23.342;2022-09-27T08:38:35;71570.28;;;-148.52;100.00
3254;BME280;1639;42.804;23.342;2022-09-27T08:44:08;71570.28;;;-148.52;100.00
3254;BME280;1639;42.804;23.342;2022-09-27T08:46:46;71568.22;;;-148.52;100.00
3254;BME280;1639;42.804;23.342;2022-09-27T08:49:30;71535.13;;;-148.52;100.00
3254;BME280;1639;42.804;23.342;2022-09-27T08:51:58;71524.81;;;-148.52;100.00
3254;BME280;1639;42.804;23.342;2022-09-27T08:54:27;71545.47;;;-148.52;100.00
3254;BME280;1639;42.804;23.342;2022-09-27T08:57:01;71582.69;;;-148.52;100.00
3254;BME280;1639;42.804;23.342;2022-09-27T08:59:33;71599.22;;;-148.52;100.00
3254;BME280;1639;42.804;23.342;2022-09-27T09:02:01;71564.09;;;-148.52;100.00
3254;BME280;1639;42.804;23.342;2022-09-27T09:07:29;71537.22;;;-148.52;100.00
3254;BME280;1639;42.804;23.342;2022-09-27T09:13:33;71518.59;;;-148.52;100.00
3254;BME280;1639;42.804;23.342;2022-09-27T09:19:13;71504.13;;;-148.52;100.00
3254;BME280;1639;42.804;23.342;2022-09-27T09:27:05;71466.91;;;-148.52;100.00
3254;BME280;1639;42.804;23.342;2022-09-27T09:35:18;71425.56;;;-148.52;100.00
3254;BME280;1639;42.804;23.342;2022-09-27T09:37:49;71396.63;;;-148.52;100.00
3254;BME280;1639;42.804;23.342;2022-09-27T09:40:31;71413.16;;;-148.52;100.00
3254;BME280;1639;42.804;23.342;2022-09-27T09:43:07;71429.69;;;-148.52;100.00
3254;BME280;1639;42.804;23.342;2022-09-27T09:45:48;71491.72;;;-148.52;100.00
3254;BME280;1639;42.804;23.342;2022-09-27T09:48:48;71485.53;;;-148.52;100.00
3254;BME280;1639;42.804;23.342;2022-09-27T09:51:19;71479.31;;;-148.52;100.00
3254;BME280;1639;42.804;23.342;2022-09-27T09:56:37;71419.38;;;-148.52;100.00
3254;BME280;1639;42.804;23.342;2022-09-27T09:59:16;71417.28;;;-148.52;100.00
3254;BME280;1639;42.804;23.342;2022-09-27T10:01:45;71404.91;;;-148.52;100.00
3254;BME280;1639;42.804;23.342;2022-09-27T10:04:22;71421.44;;;-148.52;100.00
3254;BME280;1639;42.804;23.342;2022-09-27T10:06:49;71400.75;;;-148.52;100.00
3254;BME280;1639;42.804;23.342;2022-09-27T10:09:16;71392.50;;;-148.52;100.00
3254;BME280;1639;42.804;23.342;2022-09-27T10:11:46;71384.22;;;-148.52;100.00
3254;BME280;1639;42.804;23.342;2022-09-27T10:14:17;71375.94;;;-148.52;100.00
3254;BME280;1639;42.804;23.342;2022-09-27T10:16:54;71375.94;;;-148.52;100.00
3254;BME280;1639;42.804;23.342;2022-09-27T10:19:31;71347.00;;;-148.52;100.00
3254;BME280;1639;42.804;23.342;2022-09-27T10:22:01;71334.59;;;-148.52;100.00
3254;BME280;1639;42.804;23.342;2022-09-27T10:24:27;71330.47;;;-148.52;100.00
3254;BME280;1639;42.804;23.342;2022-09-27T10:26:57;71322.19;;;-148.52;100.00
3254;BME280;1639;42.804;23.342;2022-09-27T10:29:31;71318.06;;;-148.52;100.00
3254;BME280;1639;42.804;23.342;2022-09-27T10:31:59;71276.72;;;-148.52;100.00
3254;BME280;1639;42.804;23.342;2022-09-27T10:34:29;71276.72;;;-148.52;98.75
3254;BME280;1639;42.804;23.342;2022-09-27T10:39:37;71210.56;;;-148.52;100.00
3254;BME280;1639;42.804;23.342;2022-09-27T10:44:47;71247.78;;;-148.52;100.00
3254;BME280;1639;42.804;23.342;2022-09-27T10:47:17;71249.84;;;-148.52;100.00
3254;BME280;1639;42.804;23.342;2022-09-27T10:49:47;71220.91;;;-148.52;100.00
3254;BME280;1639;42.804;23.342;2022-09-27T10:52:15;71189.88;;;-148.52;100.00
3254;BME280;1639;42.804;23.342;2022-09-27T10:54:55;71185.75;;;-148.52;97.97
3254;BME280;1639;42.804;23.342;2022-09-27T10:57:23;71167.16;;;-148.52;99.62
3254;BME280;1639;42.804;23.342;2022-09-27T11:00:18;71156.81;;;-148.52;91.67
3254;BME280;1639;42.804;23.342;2022-09-27T11:02:53;71125.81;;;-148.52;91.69
3254;BME280;1639;42.804;23.342;2022-09-27T11:07:52;71061.72;;;-148.52;92.11
3254;BME280;1639;42.804;23.342;2022-09-27T11:13:04;71028.66;;;-148.52;88.19
3254;BME280;1639;42.804;23.342;2022-09-27T11:16:16;70999.72;;;-148.52;88.83
3254;BME280;1639;42.804;23.342;2022-09-27T11:24:30;70983.16;;;-148.52;86.12
3254;BME280;1639;42.804;23.342;2022-09-27T11:27:32;70962.50;;;-148.52;85.83
3254;BME280;1639;42.804;23.342;2022-09-27T11:30:07;70954.22;;;-148.52;85.74
3254;BME280;1639;42.804;23.342;2022-09-27T11:35:46;70985.22;;;-148.52;86.68
3254;BME280;1639;42.804;23.342;2022-09-27T11:38:23;70970.75;;;-148.52;89.07
3254;BME280;1639;42.804;23.342;2022-09-27T11:41:23;70995.56;;;-148.52;90.37
3254;BME280;1639;42.804;23.342;2022-09-27T11:52:07;70939.75;;;-148.52;88.26
3254;BME280;1639;42.804;23.342;2022-09-27T11:57:26;70900.47;;;-148.52;86.49
3254;BME280;1639;42.804;23.342;2022-09-27T12:05:23;70904.63;;;-148.52;87.40
3254;BME280;1639;42.804;23.342;2022-09-27T12:08:14;70886.00;;;-148.52;88.50
3254;BME280;1639;42.804;23.342;2022-09-27T12:10:49;70888.06;;;-148.52;89.93
3254;BME280;1639;42.804;23.342;2022-09-27T12:13:23;70877.75;;;-148.52;88.70
3254;BME280;1639;42.804;23.342;2022-09-27T12:15:49;70888.06;;;-148.52;88.32
3254;BME280;1639;42.804;23.342;2022-09-27T12:18:37;70865.34;;;-148.52;89.11
3254;BME280;1639;42.804;23.342;2022-09-27T12:21:05;70859.13;;;-148.52;86.15
3254;BME280;1639;42.804;23.342;2022-09-27T12:23:35;70875.69;;;-148.52;90.31
3254;BME280;1639;42.804;23.342;2022-09-27T12:26:22;70900.47;;;-148.52;87.38
3254;BME280;1639;42.804;23.342;2022-09-27T12:28:56;70900.47;;;-148.52;89.83
3254;BME280;1639;42.804;23.342;2022-09-27T12:37:35;70875.69;;;-148.52;90.81
3254;BME280;1639;42.804;23.342;2022-09-27T12:40:14;70879.81;;;-148.52;88.71
3254;BME280;1639;42.804;23.342;2022-09-27T12:45:58;70859.13;;;-148.52;90.51
3254;BME280;1639;42.804;23.342;2022-09-27T12:51:21;70834.34;;;-148.52;91.37
3254;BME280;1639;42.804;23.342;2022-09-27T12:57:02;70875.69;;;-148.52;90.22
3254;BME280;1639;42.804;23.342;2022-09-27T13:13:48;70983.16;;;-148.52;88.06
3254;BME280;1639;42.804;23.342;2022-09-27T13:16:13;71026.56;;;-148.52;87.89
3254;BME280;1639;42.804;23.342;2022-09-27T13:18:57;71028.66;;;-148.52;88.43
3254;BME280;1639;42.804;23.342;2022-09-27T13:24:43;71024.50;;;-148.52;88.83
3254;BME280;1639;42.804;23.342;2022-09-27T13:32:33;71016.25;;;-148.52;91.84
3254;BME280;1639;42.804;23.342;2022-09-27T13:35:19;71010.03;;;-148.52;90.58
3254;BME280;1639;42.804;23.342;2022-09-27T13:45:35;71057.59;;;-148.52;93.77
3254;BME280;1639;42.804;23.342;2022-09-27T13:48:15;71061.72;;;-148.52;93.89
3254;BME280;1639;42.804;23.342;2022-09-27T13:50:50;71092.72;;;-148.52;96.05
3254;BME280;1639;42.804;23.342;2022-09-27T13:55:53;71098.94;;;-148.52;96.85
3254;BME280;1639;42.804;23.342;2022-09-27T14:00:57;71142.34;;;-148.52;98.20
3254;BME280;1639;42.804;23.342;2022-09-27T14:03:31;71127.88;;;-148.52;98.99
3254;BME280;1639;42.804;23.342;2022-09-27T14:06:03;71101.00;;;-148.52;98.31
3254;BME280;1639;42.804;23.342;2022-09-27T14:08:39;71111.34;;;-148.52;97.10
3254;BME280;1639;42.804;23.342;2022-09-27T14:11:18;71140.28;;;-148.52;98.03
3254;BME280;1639;42.804;23.342;2022-09-27T14:13:46;71142.34;;;-148.52;97.79
3254;BME280;1639;42.804;23.342;2022-09-27T14:16:16;71154.75;;;-148.52;98.85
3254;BME280;1639;42.804;23.342;2022-09-27T14:18:55;71212.63;;;-148.52;100.00
3254;BME280;1639;42.804;23.342;2022-09-27T14:23:53;71185.75;;;-148.52;100.00
3254;BME280;1639;42.804;23.342;2022-09-27T14:26:35;71202.28;;;-148.52;100.00
3254;BME280;1639;42.804;23.342;2022-09-27T14:29:01;71206.44;;;-148.52;100.00
3254;BME280;1639;42.804;23.342;2022-09-27T14:31:26;71206.44;;;-148.52;100.00
3254;BME280;1639;42.804;23.342;2022-09-27T14:34:04;71185.75;;;-148.52;100.00
3254;BME280;1639;42.804;23.342;2022-09-27T14:36:32;71154.75;;;-148.52;100.00
3254;BME280;1639;42.804;23.342;2022-09-27T14:39:43;71169.22;;;-148.52;100.00
3254;BME280;1639;42.804;23.342;2022-09-27T14:42:18;71189.88;;;-148.52;100.00
3254;BME280;1639;42.804;23.342;2022-09-27T14:44:48;71187.81;;;-148.52;100.00
3254;BME280;1639;42.804;23.342;2022-09-27T14:49:47;71181.63;;;-148.52;100.00
3254;BME280;1639;42.804;23.342;2022-09-27T14:52:25;71187.81;;;-148.52;100.00
3254;BME280;1639;42.804;23.342;2022-09-27T14:55:19;71194.03;;;-148.52;100.00
3254;BME280;1639;42.804;23.342;2022-09-27T14:57:48;71212.63;;;-148.52;100.00
3254;BME280;1639;42.804;23.342;2022-09-27T15:00:21;71208.50;;;-148.52;100.00
3254;BME280;1639;42.804;23.342;2022-09-27T15:02:48;71194.03;;;-148.52;100.00
3254;BME280;1639;42.804;23.342;2022-09-27T15:05:18;71222.97;;;-148.52;100.00
3254;BME280;1639;42.804;23.342;2022-09-27T15:07:45;71235.38;;;-148.52;100.00
3254;BME280;1639;42.804;23.342;2022-09-27T15:10:19;71280.84;;;-148.52;100.00
3254;BME280;1639;42.804;23.342;2022-09-27T15:12:47;71297.38;;;-148.52;100.00
3254;BME280;1639;42.804;23.342;2022-09-27T15:15:17;71303.59;;;-148.52;100.00
3254;BME280;1639;42.804;23.342;2022-09-27T15:17:44;71284.97;;;-148.52;100.00
3254;BME280;1639;42.804;23.342;2022-09-27T15:20:21;71347.00;;;-148.52;100.00
3254;BME280;1639;42.804;23.342;2022-09-27T15:22:48;71326.34;;;-148.52;100.00
3254;BME280;1639;42.804;23.342;2022-09-27T15:25:21;71307.72;;;-148.52;100.00
3254;BME280;1639;42.804;23.342;2022-09-27T15:27:52;71305.66;;;-148.52;100.00
3254;BME280;1639;42.804;23.342;2022-09-27T15:30:24;71322.19;;;-148.52;100.00
3254;BME280;1639;42.804;23.342;2022-09-27T15:32:52;71338.75;;;-148.52;100.00
3254;BME280;1639;42.804;23.342;2022-09-27T15:35:25;71326.34;;;-148.52;100.00
3254;BME280;1639;42.804;23.342;2022-09-27T15:37:51;71344.94;;;-148.52;100.00
3254;BME280;1639;42.804;23.342;2022-09-27T15:43:27;71349.06;;;-148.52;100.00
3254;BME280;1639;42.804;23.342;2022-09-27T15:45:56;71373.88;;;-148.52;100.00
3254;BME280;1639;42.804;23.342;2022-09-27T15:48:24;71384.22;;;-148.52;100.00
3254;BME280;1639;42.804;23.342;2022-09-27T15:50:49;71386.28;;;-148.52;100.00